Accueil
METAR-TAF:

METAR-TAF

Aéroports :

Aéroport de Bergerac-Dordogne-Périgord

Bergerac, France

latitude: 44-49N, longitude: 000-31E, altitude: 51 m

Observation

Le bulletin a été fait il y a 15 minutes, à 18:30 UTC
Vent calme
Température 4°C
Humidité 75%
Pression 1035 hPa
Visibilité: 9000 m

METAR: LFBE 021830Z AUTO 00000KT 9000 NSC 04/00 Q1035 NOSIG

Heure: 19:45 (18:45 UTC)

Prévision

Le bulletin a été fait il y a 1 heure et 45 minutes, à 17:00 UTC
Prévision valable du 02 à 18 UTC au 03 à 18 UTC
Vent 4 kt de nord/nord-ouest
Visibilité 10 km ou plus
Nuages épars à une hauteur de 3000 ft
Probabilité 40%
du 03 à 00 UTC au 03 à 10 UTC
Visibilité: 3000 m
brume
Probabilité 30% :
Temporairement
du 03 à 03 UTC au 03 à 09 UTC
Visibilité: 0400 m
brouillard

TAF: LFBE 021700Z 0218/0318 34004KT 9999 SCT030 PROB40 0300/0310 3000 BR PROB30 TEMPO 0303/0309 0400 FG VV///

Observations et prévisions météorologiques de plus de 4000 aéroports (messages METAR et TAF).

Les stations disponibles sont représentées par des disques jaunes et rouges sur la carte.

Passer la souris dessus pour voir le nom de la station.

Cliquer dessus pour voir les observations et prévisions météorologiques.

Pour changer de carte: cliquez sur les boutons verts avec une croix noire pour zoomer, sur le bouton vert avec un tiret pour effectuer un zoom arrière, ou sur les flèches vertes pour les cartes adjacentes.


METAR-TAF: